sensor_id;sensor_type;location;lat;lon;timestamp;temperature;humidity
9662;DHT22;24982;52.344;12.990;2022-08-20T00:02:20;20.90;99.90
9662;DHT22;24982;52.344;12.990;2022-08-20T00:05:24;20.90;99.90
9662;DHT22;24982;52.344;12.990;2022-08-20T00:08:29;20.90;99.90
9662;DHT22;24982;52.344;12.990;2022-08-20T00:11:32;20.90;99.90
9662;DHT22;24982;52.344;12.990;2022-08-20T00:14:35;20.90;99.90
9662;DHT22;24982;52.344;12.990;2022-08-20T00:17:37;20.90;99.90
9662;DHT22;24982;52.344;12.990;2022-08-20T00:20:43;20.90;99.90
9662;DHT22;24982;52.344;12.990;2022-08-20T00:23:49;20.90;99.90
9662;DHT22;24982;52.344;12.990;2022-08-20T00:26:51;20.90;99.90
9662;DHT22;24982;52.344;12.990;2022-08-20T00:29:53;20.90;99.90
9662;DHT22;24982;52.344;12.990;2022-08-20T00:32:57;20.90;99.90
9662;DHT22;24982;52.344;12.990;2022-08-20T00:35:59;20.90;99.90
9662;DHT22;24982;52.344;12.990;2022-08-20T00:39:07;20.80;99.90
9662;DHT22;24982;52.344;12.990;2022-08-20T00:42:10;20.90;99.90
9662;DHT22;24982;52.344;12.990;2022-08-20T00:45:12;20.90;99.90
9662;DHT22;24982;52.344;12.990;2022-08-20T00:48:14;20.90;99.90
9662;DHT22;24982;52.344;12.990;2022-08-20T00:51:23;20.90;99.90
9662;DHT22;24982;52.344;12.990;2022-08-20T00:54:33;20.90;99.90
9662;DHT22;24982;52.344;12.990;2022-08-20T00:57:38;20.90;99.90
9662;DHT22;24982;52.344;12.990;2022-08-20T01:00:46;20.90;99.90
9662;DHT22;24982;52.344;12.990;2022-08-20T01:03:48;20.90;99.90
9662;DHT22;24982;52.344;12.990;2022-08-20T01:06:52;20.90;99.90
9662;DHT22;24982;52.344;12.990;2022-08-20T01:09:55;21.00;99.90
9662;DHT22;24982;52.344;12.990;2022-08-20T01:12:57;21.00;99.90
9662;DHT22;24982;52.344;12.990;2022-08-20T01:16:01;21.00;99.90
9662;DHT22;24982;52.344;12.990;2022-08-20T01:19:04;20.90;99.90
9662;DHT22;24982;52.344;12.990;2022-08-20T01:22:09;20.90;99.90
9662;DHT22;24982;52.344;12.990;2022-08-20T01:25:44;20.90;99.90
9662;DHT22;24982;52.344;12.990;2022-08-20T01:28:49;21.00;99.90
9662;DHT22;24982;52.344;12.990;2022-08-20T01:31:52;21.00;99.90
9662;DHT22;24982;52.344;12.990;2022-08-20T01:35:00;21.00;99.90
9662;DHT22;24982;52.344;12.990;2022-08-20T01:38:03;20.90;99.90
9662;DHT22;24982;52.344;12.990;2022-08-20T01:41:35;21.00;99.90
9662;DHT22;24982;52.344;12.990;2022-08-20T01:44:44;20.90;99.90
9662;DHT22;24982;52.344;12.990;2022-08-20T01:47:46;21.00;99.90
9662;DHT22;24982;52.344;12.990;2022-08-20T01:50:54;21.00;99.90
9662;DHT22;24982;52.344;12.990;2022-08-20T01:53:59;21.00;99.90
9662;DHT22;24982;52.344;12.990;2022-08-20T01:57:05;20.90;99.90
9662;DHT22;24982;52.344;12.990;2022-08-20T02:00:11;21.00;99.90
9662;DHT22;24982;52.344;12.990;2022-08-20T02:03:13;20.90;99.90
9662;DHT22;24982;52.344;12.990;2022-08-20T02:06:15;20.90;99.90
9662;DHT22;24982;52.344;12.990;2022-08-20T02:09:18;21.00;99.90
9662;DHT22;24982;52.344;12.990;2022-08-20T02:12:21;20.90;99.90
9662;DHT22;24982;52.344;12.990;2022-08-20T02:15:23;20.90;99.90
9662;DHT22;24982;52.344;12.990;2022-08-20T02:18:25;20.90;99.90
9662;DHT22;24982;52.344;12.990;2022-08-20T02:21:30;20.90;99.90
9662;DHT22;24982;52.344;12.990;2022-08-20T02:24:33;20.90;99.90
9662;DHT22;24982;52.344;12.990;2022-08-20T02:27:38;20.90;99.90
9662;DHT22;24982;52.344;12.990;2022-08-20T02:30:44;20.90;99.90
9662;DHT22;24982;52.344;12.990;2022-08-20T02:33:47;20.90;99.90
9662;DHT22;24982;52.344;12.990;2022-08-20T02:36:49;20.90;99.90
9662;DHT22;24982;52.344;12.990;2022-08-20T02:39:52;20.90;99.90
9662;DHT22;24982;52.344;12.990;2022-08-20T02:42:55;20.90;99.90
9662;DHT22;24982;52.344;12.990;2022-08-20T02:45:57;20.90;99.90
9662;DHT22;24982;52.344;12.990;2022-08-20T02:49:00;20.90;99.90
9662;DHT22;24982;52.344;12.990;2022-08-20T02:52:02;20.90;99.90
9662;DHT22;24982;52.344;12.990;2022-08-20T02:55:05;20.90;99.90
9662;DHT22;24982;52.344;12.990;2022-08-20T02:58:08;20.90;99.90
9662;DHT22;24982;52.344;12.990;2022-08-20T03:01:13;20.90;99.90
9662;DHT22;24982;52.344;12.990;2022-08-20T03:04:15;20.90;99.90
9662;DHT22;24982;52.344;12.990;2022-08-20T03:07:17;20.90;99.90
9662;DHT22;24982;52.344;12.990;2022-08-20T03:10:22;20.90;99.90
9662;DHT22;24982;52.344;12.990;2022-08-20T03:13:25;20.80;99.90
9662;DHT22;24982;52.344;12.990;2022-08-20T03:16:28;20.80;99.90
9662;DHT22;24982;52.344;12.990;2022-08-20T03:19:30;20.80;99.90
9662;DHT22;24982;52.344;12.990;2022-08-20T03:22:32;20.80;99.90
9662;DHT22;24982;52.344;12.990;2022-08-20T03:25:34;20.80;99.90
9662;DHT22;24982;52.344;12.990;2022-08-20T03:28:38;20.80;99.90
9662;DHT22;24982;52.344;12.990;2022-08-20T03:31:40;20.80;99.90
9662;DHT22;24982;52.344;12.990;2022-08-20T03:34:42;20.80;99.90
9662;DHT22;24982;52.344;12.990;2022-08-20T03:37:45;20.80;99.90
9662;DHT22;24982;52.344;12.990;2022-08-20T03:40:47;20.80;99.90
9662;DHT22;24982;52.344;12.990;2022-08-20T03:43:51;20.80;99.90
9662;DHT22;24982;52.344;12.990;2022-08-20T03:46:54;20.80;99.90
9662;DHT22;24982;52.344;12.990;2022-08-20T03:49:57;20.70;99.90
9662;DHT22;24982;52.344;12.990;2022-08-20T03:53:00;20.70;99.90
9662;DHT22;24982;52.344;12.990;2022-08-20T03:56:04;20.70;99.90
9662;DHT22;24982;52.344;12.990;2022-08-20T03:59:08;20.70;99.90
9662;DHT22;24982;52.344;12.990;2022-08-20T04:02:10;20.70;99.90
9662;DHT22;24982;52.344;12.990;2022-08-20T04:05:12;20.70;99.90
9662;DHT22;24982;52.344;12.990;2022-08-20T04:08:17;20.70;99.90
9662;DHT22;24982;52.344;12.990;2022-08-20T04:11:19;20.70;99.90
9662;DHT22;24982;52.344;12.990;2022-08-20T04:14:22;20.70;99.90
9662;DHT22;24982;52.344;12.990;2022-08-20T04:17:24;20.70;99.90
9662;DHT22;24982;52.344;12.990;2022-08-20T04:20:27;20.70;99.90
9662;DHT22;24982;52.344;12.990;2022-08-20T04:23:29;20.70;99.90
9662;DHT22;24982;52.344;12.990;2022-08-20T04:26:31;20.70;99.90
9662;DHT22;24982;52.344;12.990;2022-08-20T04:29:40;20.70;99.90
9662;DHT22;24982;52.344;12.990;2022-08-20T04:32:44;20.70;99.90
9662;DHT22;24982;52.344;12.990;2022-08-20T04:35:46;20.70;99.90
9662;DHT22;24982;52.344;12.990;2022-08-20T04:38:48;20.70;99.90
9662;DHT22;24982;52.344;12.990;2022-08-20T04:41:50;20.70;99.90
9662;DHT22;24982;52.344;12.990;2022-08-20T04:44:54;20.80;99.90
9662;DHT22;24982;52.344;12.990;2022-08-20T04:47:56;20.80;99.90
9662;DHT22;24982;52.344;12.990;2022-08-20T04:50:58;20.70;99.90
9662;DHT22;24982;52.344;12.990;2022-08-20T04:54:02;20.70;99.90
9662;DHT22;24982;52.344;12.990;2022-08-20T04:57:04;20.70;99.90
9662;DHT22;24982;52.344;12.990;2022-08-20T05:00:11;20.80;99.90
9662;DHT22;24982;52.344;12.990;2022-08-20T05:03:15;20.80;99.90
9662;DHT22;24982;52.344;12.990;2022-08-20T05:06:17;20.80;99.90
9662;DHT22;24982;52.344;12.990;2022-08-20T05:09:19;20.80;99.90
9662;DHT22;24982;52.344;12.990;2022-08-20T05:12:21;20.80;99.90
9662;DHT22;24982;52.344;12.990;2022-08-20T05:15:24;20.80;99.90
9662;DHT22;24982;52.344;12.990;2022-08-20T05:18:27;20.80;99.90
9662;DHT22;24982;52.344;12.990;2022-08-20T05:21:33;20.80;99.90
9662;DHT22;24982;52.344;12.990;2022-08-20T05:24:35;20.80;99.90
9662;DHT22;24982;52.344;12.990;2022-08-20T05:27:37;20.80;99.90
9662;DHT22;24982;52.344;12.990;2022-08-20T05:30:44;20.80;99.90
9662;DHT22;24982;52.344;12.990;2022-08-20T05:33:46;20.80;99.90
9662;DHT22;24982;52.344;12.990;2022-08-20T05:36:51;20.80;99.90
9662;DHT22;24982;52.344;12.990;2022-08-20T05:39:53;20.90;99.90
9662;DHT22;24982;52.344;12.990;2022-08-20T05:42:55;20.80;99.90
9662;DHT22;24982;52.344;12.990;2022-08-20T05:45:59;20.90;99.90
9662;DHT22;24982;52.344;12.990;2022-08-20T05:49:01;20.80;99.90
9662;DHT22;24982;52.344;12.990;2022-08-20T05:52:04;20.80;99.90
9662;DHT22;24982;52.344;12.990;2022-08-20T05:55:08;20.80;99.90
9662;DHT22;24982;52.344;12.990;2022-08-20T05:58:15;20.80;99.90
9662;DHT22;24982;52.344;12.990;2022-08-20T06:01:19;20.70;99.90
9662;DHT22;24982;52.344;12.990;2022-08-20T06:04:21;20.70;99.90
9662;DHT22;24982;52.344;12.990;2022-08-20T06:07:27;20.80;99.90
9662;DHT22;24982;52.344;12.990;2022-08-20T06:10:29;20.80;99.90
9662;DHT22;24982;52.344;12.990;2022-08-20T06:13:31;21.00;99.90
9662;DHT22;24982;52.344;12.990;2022-08-20T06:16:35;21.00;99.90
9662;DHT22;24982;52.344;12.990;2022-08-20T06:19:39;21.00;99.90
9662;DHT22;24982;52.344;12.990;2022-08-20T06:22:41;21.00;99.90
9662;DHT22;24982;52.344;12.990;2022-08-20T06:25:43;21.00;99.90
9662;DHT22;24982;52.344;12.990;2022-08-20T06:28:45;20.90;99.90
9662;DHT22;24982;52.344;12.990;2022-08-20T06:31:48;20.90;99.90
9662;DHT22;24982;52.344;12.990;2022-08-20T06:34:50;21.00;99.90
9662;DHT22;24982;52.344;12.990;2022-08-20T06:37:52;21.00;99.90
9662;DHT22;24982;52.344;12.990;2022-08-20T06:40:56;20.90;99.90
9662;DHT22;24982;52.344;12.990;2022-08-20T06:43:58;20.90;99.90
9662;DHT22;24982;52.344;12.990;2022-08-20T06:47:02;21.00;99.90
9662;DHT22;24982;52.344;12.990;2022-08-20T06:50:07;20.90;99.90
9662;DHT22;24982;52.344;12.990;2022-08-20T06:53:12;20.90;99.90
9662;DHT22;24982;52.344;12.990;2022-08-20T06:56:14;20.90;99.90
9662;DHT22;24982;52.344;12.990;2022-08-20T06:59:16;20.90;99.90
9662;DHT22;24982;52.344;12.990;2022-08-20T07:02:20;21.00;99.90
9662;DHT22;24982;52.344;12.990;2022-08-20T07:05:24;21.00;99.90
9662;DHT22;24982;52.344;12.990;2022-08-20T07:08:26;21.10;99.90
9662;DHT22;24982;52.344;12.990;2022-08-20T07:11:28;21.10;99.90
9662;DHT22;24982;52.344;12.990;2022-08-20T07:14:30;21.10;99.90
9662;DHT22;24982;52.344;12.990;2022-08-20T07:17:34;21.20;99.90
9662;DHT22;24982;52.344;12.990;2022-08-20T07:20:37;21.20;99.90
9662;DHT22;24982;52.344;12.990;2022-08-20T07:23:40;21.20;99.90
9662;DHT22;24982;52.344;12.990;2022-08-20T07:26:42;21.20;99.90
9662;DHT22;24982;52.344;12.990;2022-08-20T07:29:44;21.20;99.90
9662;DHT22;24982;52.344;12.990;2022-08-20T07:33:05;21.20;99.90
9662;DHT22;24982;52.344;12.990;2022-08-20T07:36:08;21.30;99.90
9662;DHT22;24982;52.344;12.990;2022-08-20T07:39:10;21.30;99.90
9662;DHT22;24982;52.344;12.990;2022-08-20T07:42:12;21.30;99.90
9662;DHT22;24982;52.344;12.990;2022-08-20T07:45:15;21.30;99.90
9662;DHT22;24982;52.344;12.990;2022-08-20T07:48:20;21.30;99.90
9662;DHT22;24982;52.344;12.990;2022-08-20T07:51:28;21.30;99.90
9662;DHT22;24982;52.344;12.990;2022-08-20T07:54:36;21.30;99.90
9662;DHT22;24982;52.344;12.990;2022-08-20T07:57:49;21.30;99.90
9662;DHT22;24982;52.344;12.990;2022-08-20T08:00:55;21.30;99.90
9662;DHT22;24982;52.344;12.990;2022-08-20T08:03:59;21.40;99.90
9662;DHT22;24982;52.344;12.990;2022-08-20T08:07:01;21.40;99.90
9662;DHT22;24982;52.344;12.990;2022-08-20T08:10:05;21.40;99.90
9662;DHT22;24982;52.344;12.990;2022-08-20T08:13:09;21.50;99.90
9662;DHT22;24982;52.344;12.990;2022-08-20T08:16:14;21.50;99.90
9662;DHT22;24982;52.344;12.990;2022-08-20T08:19:18;21.50;99.90
9662;DHT22;24982;52.344;12.990;2022-08-20T08:22:20;21.60;99.90
9662;DHT22;24982;52.344;12.990;2022-08-20T08:25:22;21.60;99.90
9662;DHT22;24982;52.344;12.990;2022-08-20T08:28:24;21.60;99.90
9662;DHT22;24982;52.344;12.990;2022-08-20T08:31:29;21.70;99.90
9662;DHT22;24982;52.344;12.990;2022-08-20T08:34:34;21.70;99.90
9662;DHT22;24982;52.344;12.990;2022-08-20T08:37:36;21.70;99.90
9662;DHT22;24982;52.344;12.990;2022-08-20T08:40:39;21.70;99.90
9662;DHT22;24982;52.344;12.990;2022-08-20T08:43:43;21.70;99.90
9662;DHT22;24982;52.344;12.990;2022-08-20T08:46:47;21.80;99.90
9662;DHT22;24982;52.344;12.990;2022-08-20T08:49:51;21.80;99.90
9662;DHT22;24982;52.344;12.990;2022-08-20T08:52:56;21.80;99.90
9662;DHT22;24982;52.344;12.990;2022-08-20T08:56:00;21.80;99.90
9662;DHT22;24982;52.344;12.990;2022-08-20T08:59:05;21.80;99.90
9662;DHT22;24982;52.344;12.990;2022-08-20T09:02:16;21.80;99.90
9662;DHT22;24982;52.344;12.990;2022-08-20T09:05:22;21.90;99.90
9662;DHT22;24982;52.344;12.990;2022-08-20T09:08:30;21.90;99.90
9662;DHT22;24982;52.344;12.990;2022-08-20T09:11:45;21.90;99.90
9662;DHT22;24982;52.344;12.990;2022-08-20T09:14:48;21.90;99.90
9662;DHT22;24982;52.344;12.990;2022-08-20T09:17:51;21.90;99.90
9662;DHT22;24982;52.344;12.990;2022-08-20T09:20:54;22.00;99.90
9662;DHT22;24982;52.344;12.990;2022-08-20T09:23:56;22.00;99.90
9662;DHT22;24982;52.344;12.990;2022-08-20T09:26:58;22.00;99.90
9662;DHT22;24982;52.344;12.990;2022-08-20T09:30:00;22.00;99.90
9662;DHT22;24982;52.344;12.990;2022-08-20T09:33:02;22.10;99.90
9662;DHT22;24982;52.344;12.990;2022-08-20T09:36:06;22.10;99.90
9662;DHT22;24982;52.344;12.990;2022-08-20T09:39:08;22.20;99.90
9662;DHT22;24982;52.344;12.990;2022-08-20T09:42:14;22.20;99.90
9662;DHT22;24982;52.344;12.990;2022-08-20T09:45:17;22.30;99.90
9662;DHT22;24982;52.344;12.990;2022-08-20T09:48:19;22.30;99.90
9662;DHT22;24982;52.344;12.990;2022-08-20T09:51:22;22.40;99.90
9662;DHT22;24982;52.344;12.990;2022-08-20T09:54:24;22.50;99.90
9662;DHT22;24982;52.344;12.990;2022-08-20T09:57:30;22.50;99.90
9662;DHT22;24982;52.344;12.990;2022-08-20T10:00:32;22.50;99.90
9662;DHT22;24982;52.344;12.990;2022-08-20T10:03:35;22.50;99.90
9662;DHT22;24982;52.344;12.990;2022-08-20T10:06:40;22.50;99.90
9662;DHT22;24982;52.344;12.990;2022-08-20T10:09:42;22.50;99.90
9662;DHT22;24982;52.344;12.990;2022-08-20T10:12:44;22.50;99.90
9662;DHT22;24982;52.344;12.990;2022-08-20T10:15:46;22.50;99.90
9662;DHT22;24982;52.344;12.990;2022-08-20T10:18:48;22.50;99.90
9662;DHT22;24982;52.344;12.990;2022-08-20T10:21:52;22.40;99.90
9662;DHT22;24982;52.344;12.990;2022-08-20T10:24:54;22.40;99.90
9662;DHT22;24982;52.344;12.990;2022-08-20T10:27:56;22.40;99.90
9662;DHT22;24982;52.344;12.990;2022-08-20T10:30:59;22.40;99.90
9662;DHT22;24982;52.344;12.990;2022-08-20T10:34:01;22.40;99.90
9662;DHT22;24982;52.344;12.990;2022-08-20T10:37:05;22.40;99.90
9662;DHT22;24982;52.344;12.990;2022-08-20T10:40:08;22.40;99.90
9662;DHT22;24982;52.344;12.990;2022-08-20T10:43:11;22.40;99.90
9662;DHT22;24982;52.344;12.990;2022-08-20T10:46:13;22.40;99.90
9662;DHT22;24982;52.344;12.990;2022-08-20T10:49:15;22.30;99.90
9662;DHT22;24982;52.344;12.990;2022-08-20T10:52:19;22.30;99.90
9662;DHT22;24982;52.344;12.990;2022-08-20T10:55:21;22.30;99.90
9662;DHT22;24982;52.344;12.990;2022-08-20T10:58:24;22.30;99.90
9662;DHT22;24982;52.344;12.990;2022-08-20T11:01:26;22.20;99.90
9662;DHT22;24982;52.344;12.990;2022-08-20T11:04:28;22.20;99.90
9662;DHT22;24982;52.344;12.990;2022-08-20T11:07:33;22.20;99.90
9662;DHT22;24982;52.344;12.990;2022-08-20T11:10:36;22.20;99.90
9662;DHT22;24982;52.344;12.990;2022-08-20T11:13:38;22.10;99.90
9662;DHT22;24982;52.344;12.990;2022-08-20T11:16:40;22.10;99.90
9662;DHT22;24982;52.344;12.990;2022-08-20T11:19:43;22.10;99.90
9662;DHT22;24982;52.344;12.990;2022-08-20T11:22:47;22.00;99.90
9662;DHT22;24982;52.344;12.990;2022-08-20T11:25:49;22.00;99.90
9662;DHT22;24982;52.344;12.990;2022-08-20T11:28:51;21.90;99.90
9662;DHT22;24982;52.344;12.990;2022-08-20T11:31:53;21.90;99.90
9662;DHT22;24982;52.344;12.990;2022-08-20T11:34:55;21.90;99.90
9662;DHT22;24982;52.344;12.990;2022-08-20T11:37:58;21.80;99.90
9662;DHT22;24982;52.344;12.990;2022-08-20T11:41:00;21.80;99.90
9662;DHT22;24982;52.344;12.990;2022-08-20T11:44:03;21.80;99.90
9662;DHT22;24982;52.344;12.990;2022-08-20T11:47:06;21.80;99.90
9662;DHT22;24982;52.344;12.990;2022-08-20T11:50:10;21.80;99.90
9662;DHT22;24982;52.344;12.990;2022-08-20T11:53:14;21.90;99.90
9662;DHT22;24982;52.344;12.990;2022-08-20T11:56:17;21.90;99.90
9662;DHT22;24982;52.344;12.990;2022-08-20T11:59:20;22.00;99.90
9662;DHT22;24982;52.344;12.990;2022-08-20T12:02:22;22.00;99.90
9662;DHT22;24982;52.344;12.990;2022-08-20T12:05:24;22.00;99.90
9662;DHT22;24982;52.344;12.990;2022-08-20T12:08:30;22.00;99.90
9662;DHT22;24982;52.344;12.990;2022-08-20T12:11:32;22.10;99.90
9662;DHT22;24982;52.344;12.990;2022-08-20T12:14:34;22.10;99.90
9662;DHT22;24982;52.344;12.990;2022-08-20T12:17:36;22.10;99.90
9662;DHT22;24982;52.344;12.990;2022-08-20T12:20:39;22.10;99.90
9662;DHT22;24982;52.344;12.990;2022-08-20T12:23:43;22.20;99.90
9662;DHT22;24982;52.344;12.990;2022-08-20T12:26:45;22.20;99.90
9662;DHT22;24982;52.344;12.990;2022-08-20T12:29:48;22.20;99.90
9662;DHT22;24982;52.344;12.990;2022-08-20T12:32:52;22.30;99.90
9662;DHT22;24982;52.344;12.990;2022-08-20T12:35:55;22.30;99.90
9662;DHT22;24982;52.344;12.990;2022-08-20T12:38:59;22.30;99.90
9662;DHT22;24982;52.344;12.990;2022-08-20T12:42:01;22.30;99.90
9662;DHT22;24982;52.344;12.990;2022-08-20T12:45:04;22.30;99.90
9662;DHT22;24982;52.344;12.990;2022-08-20T12:48:08;22.30;99.90
9662;DHT22;24982;52.344;12.990;2022-08-20T12:51:10;22.20;99.90
9662;DHT22;24982;52.344;12.990;2022-08-20T12:54:14;22.10;99.90
9662;DHT22;24982;52.344;12.990;2022-08-20T12:57:22;22.10;99.90
9662;DHT22;24982;52.344;12.990;2022-08-20T13:00:27;22.00;99.90
9662;DHT22;24982;52.344;12.990;2022-08-20T13:03:29;22.00;99.90
9662;DHT22;24982;52.344;12.990;2022-08-20T13:06:31;21.90;99.90
9662;DHT22;24982;52.344;12.990;2022-08-20T13:09:34;21.90;99.90
9662;DHT22;24982;52.344;12.990;2022-08-20T13:12:37;21.80;99.90
9662;DHT22;24982;52.344;12.990;2022-08-20T13:15:39;21.80;99.90
9662;DHT22;24982;52.344;12.990;2022-08-20T13:18:41;21.80;99.90
9662;DHT22;24982;52.344;12.990;2022-08-20T13:21:43;21.80;99.90
9662;DHT22;24982;52.344;12.990;2022-08-20T13:24:47;21.80;99.90
9662;DHT22;24982;52.344;12.990;2022-08-20T13:27:53;21.80;99.90
9662;DHT22;24982;52.344;12.990;2022-08-20T13:30:57;21.80;99.90
9662;DHT22;24982;52.344;12.990;2022-08-20T13:34:01;21.90;99.90
9662;DHT22;24982;52.344;12.990;2022-08-20T13:37:10;22.00;99.90
9662;DHT22;24982;52.344;12.990;2022-08-20T13:40:15;22.00;99.90
9662;DHT22;24982;52.344;12.990;2022-08-20T13:43:17;22.10;99.90
9662;DHT22;24982;52.344;12.990;2022-08-20T13:46:19;22.10;99.90
9662;DHT22;24982;52.344;12.990;2022-08-20T13:49:21;22.20;99.90
9662;DHT22;24982;52.344;12.990;2022-08-20T13:52:23;22.20;99.90
9662;DHT22;24982;52.344;12.990;2022-08-20T13:55:27;22.20;99.90
9662;DHT22;24982;52.344;12.990;2022-08-20T13:58:30;22.30;99.90
9662;DHT22;24982;52.344;12.990;2022-08-20T14:01:32;22.20;99.90
9662;DHT22;24982;52.344;12.990;2022-08-20T14:04:34;22.30;99.90
9662;DHT22;24982;52.344;12.990;2022-08-20T14:07:36;22.40;99.90
9662;DHT22;24982;52.344;12.990;2022-08-20T14:10:40;22.40;99.90
9662;DHT22;24982;52.344;12.990;2022-08-20T14:13:42;22.40;99.90
9662;DHT22;24982;52.344;12.990;2022-08-20T14:16:44;22.40;99.90
9662;DHT22;24982;52.344;12.990;2022-08-20T14:19:49;22.40;99.90
9662;DHT22;24982;52.344;12.990;2022-08-20T14:22:51;22.50;99.90
9662;DHT22;24982;52.344;12.990;2022-08-20T14:25:55;22.50;99.90
9662;DHT22;24982;52.344;12.990;2022-08-20T14:28:57;22.40;99.90
9662;DHT22;24982;52.344;12.990;2022-08-20T14:31:59;22.40;99.90
9662;DHT22;24982;52.344;12.990;2022-08-20T14:35:01;22.40;99.90
9662;DHT22;24982;52.344;12.990;2022-08-20T14:38:03;22.40;99.90
9662;DHT22;24982;52.344;12.990;2022-08-20T14:41:07;22.40;99.90
9662;DHT22;24982;52.344;12.990;2022-08-20T14:44:09;22.40;99.90
9662;DHT22;24982;52.344;12.990;2022-08-20T14:47:13;22.40;99.90
9662;DHT22;24982;52.344;12.990;2022-08-20T14:50:19;22.30;99.90
9662;DHT22;24982;52.344;12.990;2022-08-20T14:53:21;22.30;99.90
9662;DHT22;24982;52.344;12.990;2022-08-20T14:56:25;22.30;99.90
9662;DHT22;24982;52.344;12.990;2022-08-20T14:59:27;22.30;99.90
9662;DHT22;24982;52.344;12.990;2022-08-20T15:02:29;22.30;99.90
9662;DHT22;24982;52.344;12.990;2022-08-20T15:05:31;22.30;99.90
9662;DHT22;24982;52.344;12.990;2022-08-20T15:08:33;22.30;99.90
9662;DHT22;24982;52.344;12.990;2022-08-20T15:11:36;22.30;99.90
9662;DHT22;24982;52.344;12.990;2022-08-20T15:14:40;22.30;99.90
9662;DHT22;24982;52.344;12.990;2022-08-20T15:17:43;22.30;99.90
9662;DHT22;24982;52.344;12.990;2022-08-20T15:20:46;22.30;99.90
9662;DHT22;24982;52.344;12.990;2022-08-20T15:23:48;22.20;99.90
9662;DHT22;24982;52.344;12.990;2022-08-20T15:26:51;22.20;99.90
9662;DHT22;24982;52.344;12.990;2022-08-20T15:29:53;22.80;99.90
9662;DHT22;24982;52.344;12.990;2022-08-20T15:32:55;22.10;99.90
9662;DHT22;24982;52.344;12.990;2022-08-20T15:35:57;22.10;99.90
9662;DHT22;24982;52.344;12.990;2022-08-20T15:38:59;22.10;99.90
9662;DHT22;24982;52.344;12.990;2022-08-20T15:42:03;22.10;99.90
9662;DHT22;24982;52.344;12.990;2022-08-20T15:45:07;22.10;99.90
9662;DHT22;24982;52.344;12.990;2022-08-20T15:48:12;22.10;99.90
9662;DHT22;24982;52.344;12.990;2022-08-20T15:51:24;22.10;99.90
9662;DHT22;24982;52.344;12.990;2022-08-20T15:54:29;22.10;99.90
9662;DHT22;24982;52.344;12.990;2022-08-20T15:57:44;22.10;99.90
9662;DHT22;24982;52.344;12.990;2022-08-20T16:00:53;22.10;99.90
9662;DHT22;24982;52.344;12.990;2022-08-20T16:04:06;22.10;99.90
9662;DHT22;24982;52.344;12.990;2022-08-20T16:07:16;22.10;99.90
9662;DHT22;24982;52.344;12.990;2022-08-20T16:10:24;22.10;99.90
9662;DHT22;24982;52.344;12.990;2022-08-20T16:13:34;22.10;99.90
9662;DHT22;24982;52.344;12.990;2022-08-20T16:16:42;22.10;99.90
9662;DHT22;24982;52.344;12.990;2022-08-20T16:19:51;22.10;99.90
9662;DHT22;24982;52.344;12.990;2022-08-20T16:22:55;22.10;99.90
9662;DHT22;24982;52.344;12.990;2022-08-20T16:26:05;22.10;99.90
9662;DHT22;24982;52.344;12.990;2022-08-20T16:29:18;22.10;99.90
9662;DHT22;24982;52.344;12.990;2022-08-20T16:32:31;22.10;99.90
9662;DHT22;24982;52.344;12.990;2022-08-20T16:35:36;22.10;99.90
9662;DHT22;24982;52.344;12.990;2022-08-20T16:38:41;22.10;99.90
9662;DHT22;24982;52.344;12.990;2022-08-20T16:41:46;22.10;99.90
9662;DHT22;24982;52.344;12.990;2022-08-20T16:44:53;22.40;99.90
9662;DHT22;24982;52.344;12.990;2022-08-20T16:47:59;22.10;99.90
9662;DHT22;24982;52.344;12.990;2022-08-20T16:51:05;22.10;99.90
9662;DHT22;24982;52.344;12.990;2022-08-20T16:54:10;22.10;99.90
9662;DHT22;24982;52.344;12.990;2022-08-20T16:57:13;22.10;99.90
9662;DHT22;24982;52.344;12.990;2022-08-20T17:00:22;22.00;99.90
9662;DHT22;24982;52.344;12.990;2022-08-20T17:03:26;22.00;99.90
9662;DHT22;24982;52.344;12.990;2022-08-20T17:06:32;22.00;99.90
9662;DHT22;24982;52.344;12.990;2022-08-20T17:09:40;22.00;99.90
9662;DHT22;24982;52.344;12.990;2022-08-20T17:12:43;22.00;99.90
9662;DHT22;24982;52.344;12.990;2022-08-20T17:15:55;22.00;99.90
9662;DHT22;24982;52.344;12.990;2022-08-20T17:19:07;22.00;99.90
9662;DHT22;24982;52.344;12.990;2022-08-20T17:22:11;22.00;99.90
9662;DHT22;24982;52.344;12.990;2022-08-20T17:25:17;22.00;99.90
9662;DHT22;24982;52.344;12.990;2022-08-20T17:28:20;22.00;99.90
9662;DHT22;24982;52.344;12.990;2022-08-20T17:31:32;22.00;99.90
9662;DHT22;24982;52.344;12.990;2022-08-20T17:34:42;22.00;99.90
9662;DHT22;24982;52.344;12.990;2022-08-20T17:37:49;22.00;99.90
9662;DHT22;24982;52.344;12.990;2022-08-20T17:40:58;21.90;99.90
9662;DHT22;24982;52.344;12.990;2022-08-20T17:44:20;21.90;99.90
9662;DHT22;24982;52.344;12.990;2022-08-20T17:47:33;21.90;99.90
9662;DHT22;24982;52.344;12.990;2022-08-20T17:50:42;21.90;99.90
9662;DHT22;24982;52.344;12.990;2022-08-20T17:54:05;21.90;99.90
9662;DHT22;24982;52.344;12.990;2022-08-20T17:57:50;21.90;99.90
9662;DHT22;24982;52.344;12.990;2022-08-20T18:01:11;21.80;99.90
9662;DHT22;24982;52.344;12.990;2022-08-20T18:04:18;21.80;99.90
9662;DHT22;24982;52.344;12.990;2022-08-20T18:07:30;21.80;99.90
9662;DHT22;24982;52.344;12.990;2022-08-20T18:10:42;21.70;99.90
9662;DHT22;24982;52.344;12.990;2022-08-20T18:14:21;21.70;99.90
9662;DHT22;24982;52.344;12.990;2022-08-20T18:17:58;21.70;99.90
9662;DHT22;24982;52.344;12.990;2022-08-20T18:21:20;21.70;99.90
9662;DHT22;24982;52.344;12.990;2022-08-20T18:24:33;21.60;99.90
9662;DHT22;24982;52.344;12.990;2022-08-20T18:27:42;21.60;99.90
9662;DHT22;24982;52.344;12.990;2022-08-20T18:30:50;21.60;99.90
9662;DHT22;24982;52.344;12.990;2022-08-20T18:33:53;21.50;99.90
9662;DHT22;24982;52.344;12.990;2022-08-20T18:36:59;21.50;99.90
9662;DHT22;24982;52.344;12.990;2022-08-20T18:40:21;21.50;99.90
9662;DHT22;24982;52.344;12.990;2022-08-20T18:43:27;21.50;99.90
9662;DHT22;24982;52.344;12.990;2022-08-20T18:46:31;21.50;99.90
9662;DHT22;24982;52.344;12.990;2022-08-20T18:49:35;21.40;99.90
9662;DHT22;24982;52.344;12.990;2022-08-20T18:53:05;21.40;99.90
9662;DHT22;24982;52.344;12.990;2022-08-20T18:56:31;21.30;99.90
9662;DHT22;24982;52.344;12.990;2022-08-20T18:59:40;21.30;99.90
9662;DHT22;24982;52.344;12.990;2022-08-20T19:10:47;21.20;99.90
9662;DHT22;24982;52.344;12.990;2022-08-20T19:17:59;21.20;99.90
9662;DHT22;24982;52.344;12.990;2022-08-20T19:24:56;21.10;99.90
9662;DHT22;24982;52.344;12.990;2022-08-20T19:28:05;21.00;99.90
9662;DHT22;24982;52.344;12.990;2022-08-20T19:31:09;21.00;99.90
9662;DHT22;24982;52.344;12.990;2022-08-20T19:34:13;21.00;99.90
9662;DHT22;24982;52.344;12.990;2022-08-20T19:37:19;20.90;99.90
9662;DHT22;24982;52.344;12.990;2022-08-20T19:40:24;20.90;99.90
9662;DHT22;24982;52.344;12.990;2022-08-20T19:43:28;20.90;99.90